createdAt,value
2023-04-12T00:04:15.167Z,100.00
2023-04-12T00:09:38.887Z,100.00
2023-04-12T00:15:02.056Z,100.00
2023-04-12T00:20:25.375Z,100.00
2023-04-12T00:25:47.595Z,100.00
2023-04-12T00:31:09.713Z,100.00
2023-04-12T00:36:31.994Z,100.00
2023-04-12T00:42:05.209Z,100.00
2023-04-12T00:47:41.804Z,100.00
2023-04-12T00:53:22.093Z,100.00
2023-04-12T01:05:21.354Z,100.00
2023-04-12T01:11:19.180Z,100.00
2023-04-12T01:17:10.518Z,100.00
2023-04-12T01:23:21.869Z,100.00
2023-04-12T01:28:57.527Z,100.00
2023-04-12T01:34:28.209Z,100.00
2023-04-12T01:39:51.558Z,100.00
2023-04-12T01:45:13.867Z,100.00
2023-04-12T01:51:07.057Z,100.00
2023-04-12T01:56:35.950Z,100.00
2023-04-12T02:02:00.351Z,100.00
2023-04-12T02:07:23.393Z,100.00
2023-04-12T02:12:45.352Z,100.00
2023-04-12T02:18:08.094Z,100.00
2023-04-12T02:23:31.197Z,100.00
2023-04-12T02:28:54.035Z,100.00
2023-04-12T02:34:19.179Z,100.00
2023-04-12T02:39:46.749Z,100.00
2023-04-12T02:45:12.033Z,100.00
2023-04-12T02:50:37.985Z,100.00
2023-04-12T02:56:09.740Z,100.00
2023-04-12T03:01:32.642Z,100.00
2023-04-12T03:07:11.699Z,100.00
2023-04-12T03:12:44.179Z,100.00
2023-04-12T03:18:17.722Z,100.00
2023-04-12T03:23:43.963Z,100.00
2023-04-12T03:29:12.740Z,100.00
2023-04-12T03:34:37.220Z,100.00
2023-04-12T03:40:08.118Z,100.00
2023-04-12T03:45:31.419Z,100.00
2023-04-12T03:50:57.551Z,100.00
2023-04-12T03:56:21.790Z,100.00
2023-04-12T04:01:48.528Z,100.00
2023-04-12T04:07:12.507Z,100.00
2023-04-12T04:12:40.085Z,100.00
2023-04-12T04:18:06.110Z,100.00
2023-04-12T04:23:39.850Z,100.00
2023-04-12T04:29:05.799Z,100.00
2023-04-12T04:34:34.784Z,100.00
2023-04-12T04:40:12.157Z,100.00
2023-04-12T04:45:34.466Z,100.00
2023-04-12T04:50:57.206Z,100.00
2023-04-12T04:56:19.530Z,100.00
2023-04-12T05:01:47.870Z,100.00
2023-04-12T05:07:13.729Z,100.00
2023-04-12T05:12:38.899Z,100.00
2023-04-12T05:18:01.235Z,100.00
2023-04-12T05:23:25.327Z,100.00
2023-04-12T05:28:47.763Z,100.00
2023-04-12T05:34:11.406Z,100.00
2023-04-12T05:39:45.558Z,100.00
2023-04-12T05:45:10.967Z,100.00
2023-04-12T05:50:33.303Z,100.00
2023-04-12T05:55:56.301Z,100.00
2023-04-12T06:01:20.502Z,100.00
2023-04-12T06:06:44.231Z,100.00
2023-04-12T06:12:06.875Z,100.00
2023-04-12T06:17:31.547Z,100.00
2023-04-12T06:22:54.120Z,100.00
2023-04-12T06:28:17.032Z,100.00
2023-04-12T06:33:46.087Z,100.00
2023-04-12T06:39:10.352Z,100.00
2023-04-12T06:44:33.880Z,96.62
2023-04-12T06:49:58.527Z,91.40
2023-04-12T06:55:20.656Z,82.98
2023-04-12T07:00:42.776Z,85.12
2023-04-12T07:06:14.073Z,73.76
2023-04-12T07:11:46.419Z,73.14
2023-04-12T07:17:08.990Z,66.44
2023-04-12T07:22:31.039Z,65.97
2023-04-12T07:27:53.231Z,63.20
2023-04-12T07:33:19.609Z,63.32
2023-04-12T07:38:42.398Z,64.71
2023-04-12T07:44:05.735Z,63.59
2023-04-12T07:49:28.159Z,60.20
2023-04-12T07:54:50.149Z,58.41
2023-04-12T08:00:14.988Z,58.95
2023-04-12T08:05:36.754Z,57.83
2023-04-12T08:10:59.129Z,57.07
2023-04-12T08:16:21.587Z,59.07
2023-04-12T08:21:44.109Z,55.60
2023-04-12T08:27:06.199Z,55.28
2023-04-12T08:32:28.373Z,55.70
2023-04-12T08:38:04.563Z,50.59
2023-04-12T08:43:29.838Z,51.60
2023-04-12T08:48:55.613Z,54.31
2023-04-12T08:54:17.688Z,54.77
2023-04-12T08:59:42.944Z,55.95
2023-04-12T09:05:07.320Z,55.91
2023-04-12T09:10:37.866Z,55.51
2023-04-12T09:16:00.583Z,55.83
2023-04-12T09:21:22.449Z,52.13
2023-04-12T09:26:44.800Z,54.79
2023-04-12T09:32:09.782Z,51.89
2023-04-12T09:37:32.219Z,51.79
2023-04-12T09:42:54.870Z,52.94
2023-04-12T09:48:24.168Z,52.33
2023-04-12T09:53:50.147Z,52.93
2023-04-12T09:59:14.113Z,52.38
2023-04-12T10:04:40.917Z,51.75
2023-04-12T10:10:05.605Z,49.63
2023-04-12T10:15:41.673Z,50.18
2023-04-12T10:21:07.799Z,49.50
2023-04-12T10:26:30.963Z,50.08
2023-04-12T10:32:23.583Z,48.00
2023-04-12T10:43:42.214Z,50.44
2023-04-12T10:49:15.208Z,48.91
2023-04-12T10:54:38.988Z,49.89
2023-04-12T11:00:03.898Z,49.20
2023-04-12T11:05:28.911Z,49.64
2023-04-12T11:11:06.459Z,48.97
2023-04-12T11:16:32.600Z,48.96
2023-04-12T11:21:55.345Z,48.50
2023-04-12T11:27:18.827Z,47.50
2023-04-12T11:32:42.968Z,48.81
2023-04-12T11:38:05.117Z,48.67
2023-04-12T11:43:22.286Z,48.84
2023-04-12T11:48:47.333Z,48.14
2023-04-12T11:54:09.197Z,48.81
2023-04-12T11:59:35.429Z,48.38
2023-04-12T12:04:58.423Z,49.12
2023-04-12T12:10:36.587Z,47.66
2023-04-12T12:16:08.755Z,46.45
2023-04-12T12:21:32.458Z,45.70
2023-04-12T12:26:56.386Z,45.85
2023-04-12T12:32:20.403Z,45.17
2023-04-12T12:37:59.967Z,46.11
2023-04-12T12:43:22.420Z,44.80
2023-04-12T12:48:45.270Z,45.14
2023-04-12T12:54:08.806Z,43.91
2023-04-12T12:59:34.127Z,44.06
2023-04-12T13:04:55.841Z,42.75
2023-04-12T13:28:21.828Z,45.50
2023-04-12T13:34:09.142Z,46.14
2023-04-12T13:39:33.856Z,45.95
2023-04-12T13:44:59.229Z,45.62
2023-04-12T13:50:21.980Z,44.93
2023-04-12T13:55:44.228Z,45.56
2023-04-12T14:01:09.242Z,45.03
2023-04-12T14:06:33.209Z,44.88
2023-04-12T14:11:58.065Z,43.36
2023-04-12T14:17:22.417Z,43.80
2023-04-12T14:22:51.913Z,43.15
2023-04-12T14:28:18.785Z,42.77
2023-04-12T14:33:48.626Z,42.92
2023-04-12T14:45:19.035Z,43.75
2023-04-12T14:50:42.611Z,44.69
2023-04-12T14:56:15.286Z,44.94
2023-04-12T15:01:38.412Z,45.60
2023-04-12T15:07:00.887Z,46.23
2023-04-12T15:12:23.305Z,46.48
2023-04-12T15:17:46.834Z,46.75
2023-04-12T15:23:16.626Z,47.42
2023-04-12T15:28:43.079Z,47.90
2023-04-12T15:34:07.946Z,48.21
2023-04-12T15:39:30.652Z,48.38
2023-04-12T15:44:52.716Z,48.85
2023-04-12T15:50:15.076Z,49.45
2023-04-12T15:55:37.432Z,50.15
2023-04-12T16:01:00.667Z,50.63
2023-04-12T16:06:24.993Z,51.11
2023-04-12T16:11:49.546Z,51.87
2023-04-12T16:17:13.268Z,52.24
2023-04-12T16:22:36.489Z,52.52
2023-04-12T16:28:03.636Z,52.83
2023-04-12T16:33:26.055Z,53.31
2023-04-12T16:38:50.899Z,53.83
2023-04-12T16:44:19.748Z,54.64
2023-04-12T16:49:43.259Z,55.77
2023-04-12T16:55:12.533Z,56.33
2023-04-12T17:00:42.935Z,56.78
2023-04-12T17:06:06.533Z,57.56
2023-04-12T17:11:35.120Z,58.14
2023-04-12T17:17:06.680Z,59.09
2023-04-12T17:22:33.003Z,59.31
2023-04-12T17:28:01.762Z,60.60
2023-04-12T17:33:37.961Z,61.01
2023-04-12T17:39:16.319Z,61.55
2023-04-12T17:44:40.214Z,62.42
2023-04-12T17:50:10.766Z,63.06
2023-04-12T17:55:39.723Z,64.60
2023-04-12T18:01:02.735Z,65.40
2023-04-12T18:06:25.135Z,66.26
2023-04-12T18:11:47.431Z,67.28
2023-04-12T18:17:11.859Z,67.95
2023-04-12T18:22:33.607Z,70.21
2023-04-12T18:27:56.210Z,70.55
2023-04-12T18:33:18.642Z,71.54
2023-04-12T18:38:44.629Z,71.74
2023-04-12T18:44:09.405Z,74.04
2023-04-12T18:49:31.833Z,74.36
2023-04-12T18:54:53.793Z,75.79
2023-04-12T19:00:16.627Z,76.27
2023-04-12T19:05:39.120Z,76.55
2023-04-12T19:11:02.238Z,77.35
2023-04-12T19:16:24.976Z,79.55
2023-04-12T19:21:47.107Z,80.80
2023-04-12T19:27:09.668Z,82.74
2023-04-12T19:32:31.630Z,83.12
2023-04-12T19:37:56.647Z,86.20
2023-04-12T19:43:21.970Z,88.09
2023-04-12T19:48:43.567Z,88.33
2023-04-12T19:54:05.659Z,89.61
2023-04-12T19:59:31.255Z,92.11
2023-04-12T20:04:54.212Z,93.72
2023-04-12T20:10:16.740Z,93.80
2023-04-12T20:15:39.429Z,94.29
2023-04-12T20:21:01.032Z,94.33
2023-04-12T20:26:23.547Z,93.65
2023-04-12T20:31:48.419Z,96.24
2023-04-12T20:37:10.408Z,99.17
2023-04-12T20:42:36.298Z,98.48
2023-04-12T20:48:08.651Z,98.53
2023-04-12T20:53:32.525Z,100.00
2023-04-12T20:59:04.983Z,100.00
2023-04-12T21:04:36.749Z,100.00
2023-04-12T21:10:02.897Z,100.00
2023-04-12T21:15:29.156Z,100.00
2023-04-12T21:21:00.441Z,100.00
2023-04-12T21:26:23.297Z,100.00
2023-04-12T21:31:55.856Z,100.00
2023-04-12T21:37:22.819Z,100.00
2023-04-12T21:42:47.271Z,100.00
2023-04-12T21:48:09.184Z,100.00
2023-04-12T21:53:31.558Z,100.00
2023-04-12T21:58:53.811Z,100.00
2023-04-12T22:04:16.038Z,100.00
2023-04-12T22:09:38.227Z,100.00
2023-04-12T22:15:00.401Z,100.00
2023-04-12T22:20:22.362Z,100.00
2023-04-12T22:25:46.048Z,100.00
2023-04-12T22:31:08.843Z,100.00
2023-04-12T22:36:37.748Z,100.00
2023-04-12T22:42:00.487Z,100.00
2023-04-12T22:47:22.236Z,100.00
2023-04-12T22:52:44.238Z,100.00
2023-04-12T22:58:06.314Z,100.00
2023-04-12T23:03:29.464Z,100.00
2023-04-12T23:08:51.513Z,100.00
2023-04-12T23:14:14.522Z,100.00
2023-04-12T23:19:36.853Z,100.00
2023-04-12T23:25:02.653Z,100.00
2023-04-12T23:30:30.306Z,100.00
2023-04-12T23:36:03.330Z,100.00
2023-04-12T23:41:28.161Z,100.00
2023-04-12T23:46:49.954Z,100.00
2023-04-12T23:52:12.162Z,100.00
2023-04-12T23:57:34.115Z,100.00
